createdAt,value
2018-04-22T00:04:46.094Z,65.30
2018-04-22T00:09:48.576Z,65.20
2018-04-22T00:14:51.071Z,65.70
2018-04-22T00:19:53.513Z,66.20
2018-04-22T00:24:55.966Z,66.20
2018-04-22T00:29:58.410Z,66.70
2018-04-22T00:35:00.855Z,66.40
2018-04-22T00:40:15.087Z,66.70
2018-04-22T00:45:18.291Z,68.60
2018-04-22T00:50:21.503Z,68.80
2018-04-22T00:55:24.916Z,68.80
2018-04-22T01:00:27.343Z,68.50
2018-04-22T01:05:30.088Z,68.60
2018-04-22T01:10:32.531Z,68.50
2018-04-22T01:15:38.280Z,69.10
2018-04-22T01:26:20.746Z,69.30
2018-04-22T01:31:23.951Z,69.30
2018-04-22T01:36:27.164Z,69.20
2018-04-22T01:41:30.606Z,69.50
2018-04-22T01:46:33.779Z,69.20
2018-04-22T01:51:36.378Z,69.60
2018-04-22T01:56:38.950Z,69.60
2018-04-22T02:01:41.382Z,69.90
2018-04-22T02:07:08.160Z,69.90
2018-04-22T02:12:18.428Z,69.20
2018-04-22T02:17:20.855Z,69.50
2018-04-22T02:22:23.302Z,69.90
2018-04-22T02:27:26.533Z,70.50
2018-04-22T02:32:28.965Z,70.50
2018-04-22T02:37:31.661Z,70.60
2018-04-22T02:42:34.269Z,70.40
2018-04-22T02:47:36.694Z,70.60
2018-04-22T02:52:39.206Z,70.90
2018-04-22T02:57:41.686Z,70.70
2018-04-22T03:02:44.123Z,70.60
2018-04-22T03:07:46.567Z,71.00
2018-04-22T03:18:20.002Z,71.40
2018-04-22T03:23:23.850Z,71.40
2018-04-22T03:28:26.406Z,71.20
2018-04-22T03:33:30.318Z,71.40
2018-04-22T03:38:32.744Z,71.50
2018-04-22T03:43:35.959Z,72.20
2018-04-22T03:48:40.502Z,72.60
2018-04-22T03:53:43.702Z,72.50
2018-04-22T03:58:47.084Z,72.40
2018-04-22T04:03:49.576Z,72.80
2018-04-22T04:08:52.028Z,73.00
2018-04-22T04:13:54.474Z,72.80
2018-04-22T04:19:09.072Z,73.20
2018-04-22T04:30:06.238Z,73.10
2018-04-22T04:35:08.678Z,73.00
2018-04-22T04:40:11.882Z,73.40
2018-04-22T04:45:15.083Z,73.50
2018-04-22T04:50:18.322Z,73.80
2018-04-22T04:55:21.878Z,73.60
2018-04-22T05:00:24.312Z,74.10
2018-04-22T05:05:27.524Z,74.90
2018-04-22T05:10:38.215Z,75.00
2018-04-22T05:15:42.781Z,75.00
2018-04-22T05:20:47.187Z,73.70
2018-04-22T05:26:11.810Z,74.00
2018-04-22T05:31:15.445Z,73.70
2018-04-22T05:36:18.714Z,74.30
2018-04-22T05:41:21.155Z,76.10
2018-04-22T05:46:23.593Z,75.70
2018-04-22T05:51:26.877Z,76.60
2018-04-22T05:56:29.476Z,76.50
2018-04-22T06:01:31.934Z,76.50
2018-04-22T06:06:34.373Z,76.40
2018-04-22T06:11:37.042Z,76.60
2018-04-22T06:16:39.478Z,77.70
2018-04-22T06:21:41.959Z,76.60
2018-04-22T06:26:44.416Z,76.20
2018-04-22T06:31:46.875Z,75.50
2018-04-22T06:36:50.205Z,74.10
2018-04-22T06:41:52.697Z,73.90
2018-04-22T06:46:55.146Z,73.60
2018-04-22T06:51:57.617Z,73.00
2018-04-22T06:57:00.080Z,72.90
2018-04-22T07:02:02.529Z,72.50
2018-04-22T07:07:05.060Z,72.60
2018-04-22T07:12:07.546Z,71.00
2018-04-22T07:17:10.756Z,68.90
2018-04-22T07:22:13.247Z,68.80
2018-04-22T07:27:16.573Z,66.90
2018-04-22T07:37:46.853Z,65.90
2018-04-22T07:42:49.301Z,65.80
2018-04-22T07:47:51.752Z,64.60
2018-04-22T07:52:54.207Z,63.00
2018-04-22T07:57:57.481Z,61.50
2018-04-22T08:03:21.194Z,61.30
2018-04-22T08:08:23.877Z,61.30
2018-04-22T08:13:27.053Z,60.20
2018-04-22T08:18:29.654Z,58.70
2018-04-22T08:23:32.164Z,58.60
2018-04-22T08:28:34.608Z,58.40
2018-04-22T08:33:37.104Z,58.00
2018-04-22T08:38:39.551Z,58.20
2018-04-22T08:43:42.378Z,57.90
2018-04-22T08:48:44.902Z,57.00
2018-04-22T08:53:47.349Z,57.30
2018-04-22T08:58:50.093Z,56.80
2018-04-22T09:14:24.375Z,55.90
2018-04-22T09:19:27.604Z,54.90
2018-04-22T09:24:30.928Z,55.00
2018-04-22T09:29:40.808Z,55.50
2018-04-22T09:34:43.445Z,55.10
2018-04-22T09:39:46.871Z,55.40
2018-04-22T09:44:59.201Z,55.00
2018-04-22T09:50:02.481Z,54.00
2018-04-22T09:55:04.945Z,53.90
2018-04-22T10:00:22.629Z,53.50
2018-04-22T10:05:25.076Z,53.60
2018-04-22T10:10:43.352Z,52.60
2018-04-22T10:15:45.797Z,52.80
2018-04-22T10:20:50.070Z,53.60
2018-04-22T10:25:52.531Z,53.60
2018-04-22T10:30:56.736Z,53.50
2018-04-22T10:35:59.184Z,53.40
2018-04-22T10:41:01.635Z,53.30
2018-04-22T10:46:04.095Z,52.30
2018-04-22T10:51:06.550Z,52.10
2018-04-22T10:56:08.998Z,51.80
2018-04-22T11:01:11.454Z,51.50
2018-04-22T11:06:20.227Z,51.20
2018-04-22T11:11:22.777Z,51.30
2018-04-22T11:16:25.220Z,49.90
2018-04-22T11:21:41.682Z,49.20
2018-04-22T11:26:44.310Z,48.60
2018-04-22T11:31:47.656Z,48.60
2018-04-22T11:36:57.031Z,48.20
2018-04-22T11:42:00.297Z,47.20
2018-04-22T11:47:03.020Z,47.20
2018-04-22T11:52:06.380Z,47.30
2018-04-22T11:57:08.822Z,46.30
2018-04-22T12:02:11.351Z,45.10
2018-04-22T12:07:14.602Z,41.80
2018-04-22T12:12:17.445Z,41.60
2018-04-22T12:17:20.659Z,43.00
2018-04-22T12:22:24.338Z,38.10
2018-04-22T12:27:26.809Z,37.90
2018-04-22T12:32:29.321Z,35.20
2018-04-22T12:37:31.776Z,34.30
2018-04-22T12:42:34.258Z,35.30
2018-04-22T12:47:37.547Z,34.40
2018-04-22T12:52:39.987Z,34.30
2018-04-22T12:57:51.699Z,35.30
2018-04-22T13:02:54.445Z,37.40
2018-04-22T13:07:56.890Z,37.50
2018-04-22T13:12:59.343Z,38.80
2018-04-22T13:18:02.557Z,37.90
2018-04-22T13:23:05.844Z,38.40
2018-04-22T13:28:08.291Z,38.30
2018-04-22T13:33:10.749Z,38.20
2018-04-22T13:38:14.408Z,37.60
2018-04-22T13:43:17.005Z,37.20
2018-04-22T13:48:22.069Z,35.60
2018-04-22T13:53:43.363Z,36.40
2018-04-22T13:58:45.838Z,35.60
2018-04-22T14:03:48.286Z,35.40
2018-04-22T14:08:51.450Z,36.30
2018-04-22T14:13:54.735Z,34.70
2018-04-22T14:18:58.075Z,34.70
2018-04-22T14:24:01.299Z,35.00
2018-04-22T14:29:04.845Z,34.90
2018-04-22T14:34:07.339Z,34.10
2018-04-22T14:39:09.862Z,34.60
2018-04-22T14:44:24.193Z,34.20
2018-04-22T14:49:26.654Z,34.20
2018-04-22T14:54:29.906Z,34.40
2018-04-22T14:59:32.495Z,34.30
2018-04-22T15:04:34.976Z,34.60
2018-04-22T15:09:37.419Z,34.10
2018-04-22T15:14:39.891Z,35.60
2018-04-22T15:19:42.400Z,35.50
2018-04-22T15:24:49.965Z,35.20
2018-04-22T15:29:52.540Z,35.40
2018-04-22T15:34:56.066Z,35.40
2018-04-22T15:39:58.564Z,35.20
2018-04-22T15:45:08.981Z,37.50
2018-04-22T15:50:11.472Z,43.70
2018-04-22T15:55:13.947Z,49.40
2018-04-22T16:00:16.646Z,53.10
2018-04-22T16:05:19.422Z,54.30
2018-04-22T16:10:22.716Z,56.20
2018-04-22T16:15:25.197Z,56.00
2018-04-22T16:20:28.377Z,58.30
2018-04-22T16:25:31.351Z,62.40
2018-04-22T16:30:47.203Z,64.30
2018-04-22T16:35:49.637Z,61.60
2018-04-22T16:40:52.865Z,66.80
2018-04-22T16:45:55.333Z,66.70
2018-04-22T16:50:58.578Z,68.60
2018-04-22T16:56:01.039Z,69.10
2018-04-22T17:01:04.294Z,70.50
2018-04-22T17:06:06.757Z,69.60
2018-04-22T17:11:10.113Z,70.90
2018-04-22T17:16:12.622Z,70.90
2018-04-22T17:21:23.666Z,71.30
2018-04-22T17:26:26.122Z,71.30
2018-04-22T17:36:59.762Z,71.40
2018-04-22T17:42:06.174Z,73.40
2018-04-22T17:47:09.481Z,72.60
2018-04-22T17:52:11.953Z,72.50
2018-04-22T17:57:14.397Z,73.00
2018-04-22T18:02:16.905Z,73.50
2018-04-22T18:07:20.154Z,73.90
2018-04-22T18:12:22.595Z,75.20
2018-04-22T18:17:25.178Z,76.00
2018-04-22T18:22:28.398Z,76.10
2018-04-22T18:27:30.853Z,76.00
2018-04-22T18:32:34.395Z,76.00
2018-04-22T18:37:37.629Z,75.70
2018-04-22T18:42:40.089Z,75.50
2018-04-22T18:47:43.308Z,76.70
2018-04-22T18:52:48.793Z,77.60
2018-04-22T18:57:51.258Z,77.40
2018-04-22T19:02:55.313Z,77.60
2018-04-22T19:08:01.605Z,77.60
2018-04-22T19:13:04.778Z,77.20
2018-04-22T19:18:10.133Z,77.20
2018-04-22T19:23:12.604Z,77.00
2018-04-22T19:28:15.041Z,77.50
2018-04-22T19:33:17.485Z,75.70
2018-04-22T19:38:23.690Z,75.50
2018-04-22T19:43:26.944Z,74.80
2018-04-22T19:48:29.462Z,74.70
2018-04-22T19:59:04.495Z,75.10
2018-04-22T20:04:07.794Z,75.40
2018-04-22T20:09:10.354Z,75.30
2018-04-22T20:14:33.989Z,75.00
2018-04-22T20:19:37.206Z,73.80
2018-04-22T20:24:39.666Z,73.60
2018-04-22T20:29:42.101Z,73.30
2018-04-22T20:34:44.551Z,73.10
2018-04-22T20:39:47.002Z,72.90
2018-04-22T20:44:49.600Z,73.00
2018-04-22T20:49:52.034Z,72.80
2018-04-22T20:54:54.499Z,72.90
2018-04-22T20:59:57.024Z,73.00
2018-04-22T21:10:27.711Z,74.10
2018-04-22T21:15:35.199Z,74.00
2018-04-22T21:20:50.965Z,74.30
2018-04-22T21:25:53.499Z,74.50
2018-04-22T21:30:55.941Z,75.00
2018-04-22T21:35:58.399Z,75.60
2018-04-22T21:41:00.950Z,75.80
2018-04-22T21:46:03.409Z,75.90
2018-04-22T21:51:06.860Z,76.40
2018-04-22T21:56:10.174Z,76.20
2018-04-22T22:01:12.655Z,76.80
2018-04-22T22:06:15.102Z,77.10
2018-04-22T22:11:17.557Z,77.90
2018-04-22T22:16:20.017Z,78.40
2018-04-22T22:21:22.475Z,78.50
2018-04-22T22:26:24.990Z,78.90
2018-04-22T22:31:28.221Z,79.40
2018-04-22T22:36:30.741Z,79.30
2018-04-22T22:41:38.581Z,79.40
2018-04-22T22:46:41.045Z,79.50
2018-04-22T22:51:43.501Z,79.70
2018-04-22T22:56:58.401Z,80.20
2018-04-22T23:02:01.607Z,80.00
2018-04-22T23:07:04.082Z,79.80
2018-04-22T23:12:07.406Z,80.90
2018-04-22T23:17:09.864Z,80.20
2018-04-22T23:22:12.314Z,80.40
2018-04-22T23:27:14.765Z,80.40
2018-04-22T23:32:17.992Z,80.80
2018-04-22T23:37:20.478Z,80.60
2018-04-22T23:42:23.700Z,81.00
2018-04-22T23:47:26.230Z,80.90
2018-04-22T23:52:34.843Z,81.30
2018-04-22T23:57:37.350Z,81.40
